Terminal Aerodrome Forecast
Issued by NWS

Home | Current Version | Previous Version | Text Only | Print | Product List | Glossary On
Versions: 1 2 3 4 5 6 7 8 9 10 11 12 13 14 15 16
000
FTUS42 KTBW 220500 RRA
TAFPIE
TAF
KPIE 220547Z 2206/2306 11007KT P6SM -RA SCT025 OVC050
     FM221000 16008KT 4SM SHRA BR BKN020 OVC050
     FM221600 18012KT P6SM SCT020 BKN040 OVC100
     FM230000 19006KT 6SM BR SCT020 BKN100=

USA.gov is the U.S. government's official web portal to all federal, state and local government web resources and services.